Gwinner-Roger Melroe Field Information

FAA: GWR - ICAO: KGWR

Gwinner-Roger Melroe Field (Airport) Location

State North Dakota
County Sargent
City Gwinner
Gwinner-Roger Melroe Field (Airport) is 1 mile southeast of Gwinner, ND.
Latitude 46-13-05.8000N
Longitude 097-38-36.1000W
Elevation 1,265ft

Gwinner-Roger Melroe Field METARs

METAR KGWR 250215Z AUTO 03005KT 10SM OVC018 03/03 A3007 RMK A01
Altimeter 30.07"
Temperature 3.0°C (37.4°F)
Wind 30° at 5KT
Clouds overcast at 1,800ft
Visibility 10.0mi
Time observed: 2021-10-25T02:15:00Z

Gwinner-Roger Melroe Field (Airport) Details

Status Operational
Activation N/A
Ownership Public
Usage Public
Chart TWIN CITIES
ATC on-site No
Beacon schedule sunset-sunrise
Beacon color clear green

Gwinner-Roger Melroe Field (Airport) Contacts

Owner GWINNER ARPT AUTH
Owner address 400 4TH AVE SE, GWINNER, ND 58040
Owner phone 701-680-8000
Manager HARLEY GILBERTSON
Manager address 603 18TH ST NW, JAMESTOWN, ND 58401
Manager phone 701-438-2613

Gwinner-Roger Melroe Field Radio Frequencies

Gwinner-Roger Melroe Field (Airport) Radio Frequencies

UNICOM 122.7
Common traffic advisory frequency (CTAF) 122.7